createdAt,value
2023-05-02T00:02:11.666Z,14.00
2023-05-02T00:04:38.889Z,13.90
2023-05-02T00:07:05.977Z,13.90
2023-05-02T00:09:33.138Z,13.90
2023-05-02T00:11:59.898Z,13.80
2023-05-02T00:14:26.836Z,13.80
2023-05-02T00:16:53.551Z,13.70
2023-05-02T00:19:20.347Z,13.60
2023-05-02T00:21:50.286Z,13.50
2023-05-02T00:24:18.100Z,13.40
2023-05-02T00:26:45.013Z,13.30
2023-05-02T00:29:12.144Z,13.30
2023-05-02T00:31:41.405Z,13.20
2023-05-02T00:34:08.792Z,13.10
2023-05-02T00:36:35.868Z,13.10
2023-05-02T00:39:02.762Z,13.00
2023-05-02T00:41:29.406Z,12.90
2023-05-02T00:43:56.197Z,12.90
2023-05-02T00:46:23.000Z,12.80
2023-05-02T00:48:50.071Z,12.70
2023-05-02T00:51:17.184Z,12.70
2023-05-02T00:53:44.782Z,12.60
2023-05-02T00:56:12.002Z,12.50
2023-05-02T00:58:41.244Z,12.50
2023-05-02T01:01:31.893Z,12.50
2023-05-02T01:04:12.189Z,12.50
2023-05-02T01:06:39.215Z,12.50
2023-05-02T01:09:29.300Z,12.40
2023-05-02T01:12:11.089Z,12.40
2023-05-02T01:14:42.820Z,12.30
2023-05-02T01:17:16.923Z,12.30
2023-05-02T01:19:51.299Z,12.20
2023-05-02T01:22:20.593Z,12.20
2023-05-02T01:25:06.084Z,12.20
2023-05-02T01:28:06.991Z,12.10
2023-05-02T01:30:37.303Z,12.00
2023-05-02T01:33:05.621Z,12.00
2023-05-02T01:35:35.185Z,11.90
2023-05-02T01:38:03.352Z,11.90
2023-05-02T01:40:30.775Z,11.80
2023-05-02T01:42:59.489Z,11.80
2023-05-02T01:45:27.933Z,11.70
2023-05-02T01:47:55.321Z,11.70
2023-05-02T01:50:25.102Z,11.60
2023-05-02T01:52:54.101Z,11.70
2023-05-02T01:55:22.242Z,11.60
2023-05-02T01:57:52.288Z,11.60
2023-05-02T02:00:20.566Z,11.60
2023-05-02T02:02:49.815Z,11.50
2023-05-02T02:05:18.929Z,11.50
2023-05-02T02:07:46.559Z,11.50
2023-05-02T02:10:13.637Z,11.40
2023-05-02T02:12:52.223Z,11.40
2023-05-02T02:15:27.386Z,11.40
2023-05-02T02:17:55.497Z,11.40
2023-05-02T02:20:25.168Z,11.40
2023-05-02T02:22:53.562Z,11.40
2023-05-02T02:25:21.234Z,11.40
2023-05-02T02:27:52.588Z,11.30
2023-05-02T02:30:20.041Z,11.20
2023-05-02T02:32:47.561Z,11.20
2023-05-02T02:35:14.923Z,11.10
2023-05-02T02:37:48.607Z,11.10
2023-05-02T02:40:21.607Z,11.10
2023-05-02T02:42:52.643Z,11.00
2023-05-02T02:45:32.011Z,11.00
2023-05-02T02:48:27.962Z,10.90
2023-05-02T02:51:14.180Z,10.90
2023-05-02T02:54:25.878Z,10.90
2023-05-02T02:57:15.216Z,11.00
2023-05-02T03:00:22.133Z,11.00
2023-05-02T03:02:49.013Z,11.00
2023-05-02T03:05:16.298Z,10.90
2023-05-02T03:07:43.354Z,10.80
2023-05-02T03:10:11.811Z,10.70
2023-05-02T03:12:43.587Z,10.70
2023-05-02T03:15:45.701Z,10.60
2023-05-02T03:18:13.403Z,10.50
2023-05-02T03:20:41.959Z,10.50
2023-05-02T03:23:09.307Z,10.40
2023-05-02T03:25:36.422Z,10.50
2023-05-02T03:28:03.460Z,10.50
2023-05-02T03:30:34.447Z,10.50
2023-05-02T03:33:04.873Z,10.60
2023-05-02T03:35:33.074Z,10.60
2023-05-02T03:38:00.298Z,10.60
2023-05-02T03:40:28.354Z,10.70
2023-05-02T03:42:57.086Z,10.80
2023-05-02T03:45:29.986Z,10.90
2023-05-02T03:47:58.763Z,11.00
2023-05-02T03:50:26.443Z,11.10
2023-05-02T03:52:54.395Z,11.10
2023-05-02T03:55:31.103Z,11.20
2023-05-02T03:57:59.274Z,11.20
2023-05-02T04:00:26.412Z,11.30
2023-05-02T04:03:02.474Z,11.30
2023-05-02T04:05:31.030Z,11.30
2023-05-02T04:08:02.894Z,11.30
2023-05-02T04:10:31.149Z,11.30
2023-05-02T04:13:04.543Z,11.20
2023-05-02T04:15:55.208Z,11.10
2023-05-02T04:18:24.081Z,11.10
2023-05-02T04:20:55.477Z,11.10
2023-05-02T04:23:24.382Z,11.10
2023-05-02T04:25:59.524Z,11.10
2023-05-02T04:28:39.849Z,11.10
2023-05-02T04:31:15.193Z,11.20
2023-05-02T04:37:02.336Z,11.30
2023-05-02T04:39:31.974Z,11.30
2023-05-02T04:42:10.586Z,11.40
2023-05-02T04:44:50.775Z,11.50
2023-05-02T04:47:28.667Z,11.50
2023-05-02T04:49:55.848Z,11.60
2023-05-02T04:52:35.257Z,11.70
2023-05-02T04:55:07.738Z,11.80
2023-05-02T04:57:42.380Z,11.80
2023-05-02T05:00:17.497Z,12.00
2023-05-02T05:02:45.806Z,12.00
2023-05-02T05:05:16.078Z,12.00
2023-05-02T05:07:45.664Z,12.10
2023-05-02T05:10:14.187Z,12.20
2023-05-02T05:12:46.594Z,12.20
2023-05-02T05:15:15.147Z,12.30
2023-05-02T05:17:46.805Z,12.40
2023-05-02T05:20:14.221Z,12.50
2023-05-02T05:22:45.907Z,12.60
2023-05-02T05:25:15.944Z,12.60
2023-05-02T05:27:45.906Z,12.70
2023-05-02T05:30:13.367Z,12.70
2023-05-02T05:32:44.232Z,12.80
2023-05-02T05:35:19.046Z,12.80
2023-05-02T05:37:47.379Z,12.80
2023-05-02T05:40:18.204Z,12.80
2023-05-02T05:42:51.368Z,12.70
2023-05-02T05:45:24.934Z,12.80
2023-05-02T05:47:57.453Z,12.80
2023-05-02T05:50:27.631Z,12.80
2023-05-02T05:52:58.395Z,13.00
2023-05-02T05:55:28.660Z,13.00
2023-05-02T05:57:55.991Z,13.10
2023-05-02T06:00:23.850Z,13.20
2023-05-02T06:02:53.006Z,13.30
2023-05-02T06:05:27.591Z,13.30
2023-05-02T06:07:54.746Z,13.40
2023-05-02T06:10:21.792Z,13.50
2023-05-02T06:12:49.436Z,13.70
2023-05-02T06:15:19.244Z,13.80
2023-05-02T06:17:46.482Z,13.90
2023-05-02T06:20:16.615Z,13.90
2023-05-02T06:22:45.373Z,13.90
2023-05-02T06:25:12.661Z,14.00
2023-05-02T06:27:39.278Z,14.20
2023-05-02T06:30:07.074Z,14.20
2023-05-02T06:32:34.036Z,14.20
2023-05-02T06:35:00.935Z,14.20
2023-05-02T06:37:27.629Z,14.30
2023-05-02T06:39:54.335Z,14.40
2023-05-02T06:42:21.036Z,14.50
2023-05-02T06:44:47.845Z,14.50
2023-05-02T06:47:14.618Z,14.60
2023-05-02T06:49:41.676Z,14.70
2023-05-02T06:52:08.528Z,14.70
2023-05-02T06:54:35.507Z,14.80
2023-05-02T06:57:02.630Z,14.90
2023-05-02T06:59:29.431Z,15.00
2023-05-02T07:01:56.076Z,15.10
2023-05-02T07:04:22.878Z,15.20
2023-05-02T07:06:49.786Z,15.10
2023-05-02T07:09:16.870Z,15.20
2023-05-02T07:11:43.885Z,15.20
2023-05-02T07:14:10.817Z,15.30
2023-05-02T07:16:37.670Z,15.50
2023-05-02T07:19:06.716Z,15.70
2023-05-02T07:21:33.664Z,16.00
2023-05-02T07:24:01.088Z,16.30
2023-05-02T07:26:28.671Z,16.30
2023-05-02T07:28:55.377Z,16.40
2023-05-02T07:31:22.042Z,16.50
2023-05-02T07:33:48.825Z,16.50
2023-05-02T07:36:15.797Z,16.40
2023-05-02T07:38:42.623Z,16.40
2023-05-02T07:41:09.407Z,16.40
2023-05-02T07:43:36.081Z,16.30
2023-05-02T07:46:06.526Z,16.20
2023-05-02T07:48:34.062Z,16.20
2023-05-02T07:51:11.049Z,16.10
2023-05-02T07:53:37.960Z,16.10
2023-05-02T07:56:06.910Z,16.10
2023-05-02T07:58:34.734Z,16.20
2023-05-02T08:01:01.452Z,16.30
2023-05-02T08:03:29.447Z,16.40
2023-05-02T08:05:56.348Z,16.50
2023-05-02T08:08:23.360Z,16.40
2023-05-02T08:10:51.299Z,16.30
2023-05-02T08:13:18.262Z,16.20
2023-05-02T08:15:46.262Z,16.10
2023-05-02T08:18:13.074Z,16.20
2023-05-02T08:20:39.956Z,16.20
2023-05-02T08:23:06.734Z,16.00
2023-05-02T08:25:33.552Z,16.10
2023-05-02T08:28:00.365Z,16.00
2023-05-02T08:30:27.104Z,15.90
2023-05-02T08:32:53.862Z,15.90
2023-05-02T08:35:20.678Z,15.70
2023-05-02T08:37:47.370Z,15.70
2023-05-02T08:40:14.959Z,15.70
2023-05-02T08:42:44.850Z,15.60
2023-05-02T08:45:16.181Z,15.60
2023-05-02T08:47:45.941Z,15.60
2023-05-02T08:50:12.754Z,15.70
2023-05-02T08:52:39.514Z,15.70
2023-05-02T08:55:07.602Z,16.00
2023-05-02T08:57:34.557Z,16.00
2023-05-02T09:00:01.608Z,16.30
2023-05-02T09:02:52.307Z,16.40
2023-05-02T09:05:20.967Z,16.60
2023-05-02T09:07:49.074Z,16.70
2023-05-02T09:10:16.005Z,16.80
2023-05-02T09:12:43.005Z,16.90
2023-05-02T09:15:18.376Z,16.80
2023-05-02T09:17:48.708Z,16.80
2023-05-02T09:20:17.137Z,16.90
2023-05-02T09:22:52.043Z,16.80
2023-05-02T09:25:20.512Z,16.90
2023-05-02T09:27:55.148Z,17.00
2023-05-02T09:30:23.309Z,16.80
2023-05-02T09:32:55.498Z,16.80
2023-05-02T09:35:26.154Z,16.90
2023-05-02T09:37:54.709Z,17.00
2023-05-02T09:40:22.125Z,17.30
2023-05-02T09:42:49.141Z,17.50
2023-05-02T09:45:26.540Z,17.90
2023-05-02T09:47:54.265Z,18.30
2023-05-02T09:50:35.236Z,18.60
2023-05-02T09:53:07.060Z,18.90
2023-05-02T09:55:33.923Z,18.90
2023-05-02T09:58:01.500Z,19.30
2023-05-02T10:00:49.849Z,19.40
2023-05-02T10:03:17.969Z,19.70
2023-05-02T10:05:46.610Z,19.90
2023-05-02T10:08:14.467Z,20.20
2023-05-02T10:10:45.567Z,20.80
2023-05-02T10:13:14.082Z,21.20
2023-05-02T10:15:43.942Z,21.10
2023-05-02T10:18:17.823Z,21.00
2023-05-02T10:20:55.031Z,20.20
2023-05-02T10:23:25.332Z,19.90
2023-05-02T10:25:53.030Z,19.40
2023-05-02T10:28:20.274Z,19.20
2023-05-02T10:30:49.577Z,19.00
2023-05-02T10:33:17.137Z,18.90
2023-05-02T10:35:48.081Z,18.80
2023-05-02T10:38:22.282Z,18.90
2023-05-02T10:41:07.227Z,20.00
2023-05-02T10:43:37.774Z,21.50
2023-05-02T10:46:43.647Z,22.60
2023-05-02T10:49:12.465Z,24.40
2023-05-02T10:51:41.169Z,25.50
2023-05-02T10:54:26.442Z,24.20
2023-05-02T10:57:04.509Z,23.80
2023-05-02T10:59:39.466Z,22.90
2023-05-02T11:02:28.248Z,21.30
2023-05-02T11:05:08.291Z,21.20
2023-05-02T11:07:36.715Z,20.80
2023-05-02T11:10:18.450Z,20.60
2023-05-02T11:12:52.064Z,21.00
2023-05-02T11:15:27.902Z,22.80
2023-05-02T11:18:14.349Z,25.20
2023-05-02T11:20:42.834Z,27.40
2023-05-02T11:23:22.041Z,28.50
2023-05-02T11:25:56.289Z,29.20
2023-05-02T11:28:39.879Z,29.50
2023-05-02T11:31:27.365Z,29.80
2023-05-02T11:33:57.623Z,30.00
2023-05-02T11:36:35.191Z,31.30
2023-05-02T11:39:03.644Z,31.90
2023-05-02T11:41:40.310Z,32.40
2023-05-02T11:44:07.300Z,32.30
2023-05-02T11:46:37.170Z,32.30
2023-05-02T11:49:06.134Z,31.50
2023-05-02T11:51:34.529Z,31.50
2023-05-02T11:54:01.331Z,31.90
2023-05-02T11:56:28.227Z,31.90
2023-05-02T11:58:59.877Z,31.10
2023-05-02T12:01:26.888Z,30.30
2023-05-02T12:04:04.222Z,29.50
2023-05-02T12:06:31.295Z,28.50
2023-05-02T12:09:17.091Z,27.00
2023-05-02T12:11:44.217Z,26.10
2023-05-02T12:14:11.500Z,25.50
2023-05-02T12:16:38.343Z,24.50
2023-05-02T12:19:05.589Z,23.70
2023-05-02T12:21:33.306Z,23.40
2023-05-02T12:24:01.813Z,23.00
2023-05-02T12:26:30.866Z,22.60
2023-05-02T12:29:02.637Z,22.50
2023-05-02T12:31:31.374Z,22.40
2023-05-02T12:34:00.231Z,22.50
2023-05-02T12:36:30.559Z,22.60
2023-05-02T12:39:02.639Z,23.00
2023-05-02T12:41:43.699Z,22.90
2023-05-02T12:44:10.907Z,23.90
2023-05-02T12:46:38.627Z,24.10
2023-05-02T12:49:11.786Z,25.20
2023-05-02T12:51:40.102Z,26.10
2023-05-02T12:54:07.327Z,26.00
2023-05-02T12:56:41.027Z,24.50
2023-05-02T12:59:08.192Z,23.50
2023-05-02T13:01:35.606Z,23.40
2023-05-02T13:04:02.870Z,24.30
2023-05-02T13:06:29.860Z,24.50
2023-05-02T13:08:57.026Z,24.50
2023-05-02T13:11:24.562Z,24.90
2023-05-02T13:13:52.844Z,25.00
2023-05-02T13:16:19.610Z,24.60
2023-05-02T13:18:47.960Z,24.10
2023-05-02T13:21:15.150Z,23.80
2023-05-02T13:23:44.137Z,23.50
2023-05-02T13:26:11.576Z,23.00
2023-05-02T13:28:38.376Z,24.60
2023-05-02T13:31:05.338Z,25.40
2023-05-02T13:33:32.066Z,24.90
2023-05-02T13:35:59.214Z,24.00
2023-05-02T13:38:25.977Z,23.30
2023-05-02T13:40:54.067Z,22.70
2023-05-02T13:43:21.012Z,22.60
2023-05-02T13:45:48.885Z,22.40
2023-05-02T13:48:16.018Z,21.80
2023-05-02T13:50:43.063Z,21.20
2023-05-02T13:53:09.941Z,21.00
2023-05-02T13:55:39.842Z,20.60
2023-05-02T13:58:06.616Z,20.20
2023-05-02T14:00:33.403Z,19.80
2023-05-02T14:03:00.636Z,19.70
2023-05-02T14:05:27.499Z,19.60
2023-05-02T14:07:54.367Z,19.50
2023-05-02T14:10:21.237Z,19.60
2023-05-02T14:12:48.081Z,19.80
2023-05-02T14:15:15.243Z,19.60
2023-05-02T14:17:42.080Z,19.70
2023-05-02T14:20:10.480Z,19.80
2023-05-02T14:22:37.363Z,19.90
2023-05-02T14:25:07.594Z,20.00
2023-05-02T14:27:34.475Z,20.00
2023-05-02T14:30:01.487Z,20.10
2023-05-02T14:32:28.531Z,20.00
2023-05-02T14:34:57.461Z,19.90
2023-05-02T14:37:24.289Z,19.90
2023-05-02T14:39:55.075Z,19.90
2023-05-02T14:42:25.726Z,20.00
2023-05-02T14:44:52.646Z,20.20
2023-05-02T14:47:19.513Z,20.20
2023-05-02T14:49:46.350Z,20.40
2023-05-02T14:52:13.140Z,20.90
2023-05-02T14:54:39.916Z,22.30
2023-05-02T14:57:08.031Z,22.50
2023-05-02T14:59:36.009Z,22.50
2023-05-02T15:02:05.761Z,23.80
2023-05-02T15:04:32.790Z,24.40
2023-05-02T15:07:03.584Z,24.20
2023-05-02T15:09:30.722Z,25.20
2023-05-02T15:11:57.625Z,26.60
2023-05-02T15:14:24.564Z,27.20
2023-05-02T15:16:51.482Z,26.00
2023-05-02T15:19:19.792Z,25.60
2023-05-02T15:21:46.888Z,26.60
2023-05-02T15:24:13.746Z,27.10
2023-05-02T15:26:41.382Z,27.30
2023-05-02T15:29:08.537Z,26.40
2023-05-02T15:31:35.598Z,25.40
2023-05-02T15:34:02.669Z,26.30
2023-05-02T15:36:30.209Z,27.00
2023-05-02T15:38:57.481Z,27.50
2023-05-02T15:41:27.550Z,28.30
2023-05-02T15:43:54.380Z,27.90
2023-05-02T15:46:21.201Z,27.40
2023-05-02T15:48:48.467Z,27.40
2023-05-02T15:51:15.761Z,27.30
2023-05-02T15:53:44.828Z,27.00
2023-05-02T15:56:12.577Z,26.30
2023-05-02T15:58:39.949Z,26.50
2023-05-02T16:01:06.993Z,26.60
2023-05-02T16:03:34.259Z,26.80
2023-05-02T16:06:01.395Z,26.30
2023-05-02T16:08:28.617Z,26.60
2023-05-02T16:10:55.980Z,26.90
2023-05-02T16:13:26.008Z,27.00
2023-05-02T16:15:52.872Z,26.60
2023-05-02T16:18:19.742Z,26.80
2023-05-02T16:20:47.771Z,26.90
2023-05-02T16:23:14.601Z,26.50
2023-05-02T16:25:41.511Z,25.50
2023-05-02T16:28:08.289Z,24.70
2023-05-02T16:30:38.076Z,23.50
2023-05-02T16:33:04.929Z,22.70
2023-05-02T16:35:31.999Z,22.20
2023-05-02T16:37:59.028Z,21.80
2023-05-02T16:40:27.494Z,21.10
2023-05-02T16:42:55.295Z,20.60
2023-05-02T16:45:22.323Z,20.50
2023-05-02T16:47:49.144Z,20.30
2023-05-02T16:50:15.975Z,20.40
2023-05-02T16:52:44.321Z,20.40
2023-05-02T16:55:11.180Z,20.20
2023-05-02T16:57:39.044Z,20.00
2023-05-02T17:00:08.338Z,19.70
2023-05-02T17:02:35.313Z,19.50
2023-05-02T17:05:02.235Z,19.30
2023-05-02T17:07:29.041Z,19.20
2023-05-02T17:09:55.769Z,19.10
2023-05-02T17:12:22.815Z,18.80
2023-05-02T17:14:49.610Z,18.50
2023-05-02T17:17:18.763Z,18.50
2023-05-02T17:19:45.602Z,18.40
2023-05-02T17:22:12.826Z,18.40
2023-05-02T17:24:39.586Z,18.30
2023-05-02T17:27:06.588Z,18.40
2023-05-02T17:29:33.817Z,18.40
2023-05-02T17:32:01.624Z,18.30
2023-05-02T17:34:30.271Z,18.20
2023-05-02T17:36:57.017Z,18.20
2023-05-02T17:39:23.679Z,18.10
2023-05-02T17:41:50.546Z,18.00
2023-05-02T17:44:17.679Z,17.80
2023-05-02T17:46:44.656Z,17.60
2023-05-02T17:49:11.520Z,17.60
2023-05-02T17:51:38.317Z,17.50
2023-05-02T17:54:05.099Z,17.40
2023-05-02T17:56:35.093Z,17.30
2023-05-02T17:59:01.996Z,17.10
2023-05-02T18:01:28.838Z,16.90
2023-05-02T18:03:56.722Z,16.70
2023-05-02T18:06:23.912Z,16.70
2023-05-02T18:08:51.577Z,16.50
2023-05-02T18:11:19.433Z,16.40
2023-05-02T18:13:46.752Z,16.20
2023-05-02T18:16:14.370Z,16.10
2023-05-02T18:18:42.007Z,16.00
2023-05-02T18:21:12.274Z,15.80
2023-05-02T18:23:40.163Z,15.70
2023-05-02T18:26:12.251Z,15.50
2023-05-02T18:28:39.666Z,15.40
2023-05-02T18:31:06.800Z,15.30
2023-05-02T18:33:33.671Z,15.20
2023-05-02T18:36:00.404Z,15.10
2023-05-02T18:38:27.397Z,15.00
2023-05-02T18:40:54.276Z,14.90
2023-05-02T18:43:21.963Z,14.70
2023-05-02T18:45:48.883Z,14.60
2023-05-02T18:48:15.954Z,14.40
2023-05-02T18:50:42.758Z,14.20
2023-05-02T18:53:09.620Z,14.10
2023-05-02T18:55:36.290Z,14.00
2023-05-02T18:58:03.173Z,13.90
2023-05-02T19:00:31.560Z,13.80
2023-05-02T19:02:59.008Z,13.50
2023-05-02T19:05:27.485Z,13.50
2023-05-02T19:07:54.593Z,13.40
2023-05-02T19:10:21.759Z,13.30
2023-05-02T19:12:48.717Z,13.20
2023-05-02T19:15:15.446Z,13.00
2023-05-02T19:17:44.250Z,13.00
2023-05-02T19:20:11.410Z,12.90
2023-05-02T19:22:38.287Z,12.80
2023-05-02T19:25:05.330Z,12.70
2023-05-02T19:27:32.086Z,12.60
2023-05-02T19:29:59.459Z,12.50
2023-05-02T19:32:26.376Z,12.40
2023-05-02T19:34:53.166Z,12.40
2023-05-02T19:37:19.992Z,12.40
2023-05-02T19:39:46.752Z,12.30
2023-05-02T19:42:13.793Z,12.30
2023-05-02T19:44:41.172Z,12.20
2023-05-02T19:47:07.960Z,12.20
2023-05-02T19:49:34.755Z,12.10
2023-05-02T19:52:01.562Z,12.10
2023-05-02T19:54:28.269Z,12.10
2023-05-02T19:56:54.944Z,12.00
2023-05-02T19:59:22.145Z,11.90
2023-05-02T20:01:49.891Z,11.80
2023-05-02T20:04:16.663Z,11.80
2023-05-02T20:06:43.658Z,11.70
2023-05-02T20:09:10.942Z,11.70
2023-05-02T20:11:37.734Z,11.60
2023-05-02T20:14:04.483Z,11.50
2023-05-02T20:16:32.016Z,11.50
2023-05-02T20:18:58.925Z,11.40
2023-05-02T20:21:26.823Z,11.40
2023-05-02T20:23:53.722Z,11.30
2023-05-02T20:26:21.203Z,11.30
2023-05-02T20:28:47.997Z,11.20
2023-05-02T20:31:14.798Z,11.20
2023-05-02T20:33:45.835Z,11.10
2023-05-02T20:36:14.720Z,11.10
2023-05-02T20:38:42.881Z,11.00
2023-05-02T20:41:12.840Z,11.00
2023-05-02T20:43:47.137Z,10.90
2023-05-02T20:46:16.518Z,10.90
2023-05-02T20:48:43.363Z,10.90
2023-05-02T20:51:10.170Z,10.80
2023-05-02T20:53:37.917Z,10.70
2023-05-02T20:56:05.129Z,10.70
2023-05-02T20:58:32.185Z,10.60
2023-05-02T21:00:59.290Z,10.60
2023-05-02T21:03:27.521Z,10.60
2023-05-02T21:05:56.235Z,10.50
2023-05-02T21:08:23.649Z,10.50
2023-05-02T21:10:51.412Z,10.40
2023-05-02T21:13:18.390Z,10.40
2023-05-02T21:15:45.268Z,10.30
2023-05-02T21:18:12.138Z,10.20
2023-05-02T21:20:39.607Z,10.20
2023-05-02T21:23:06.594Z,10.10
2023-05-02T21:25:33.396Z,10.10
2023-05-02T21:28:00.197Z,10.10
2023-05-02T21:30:26.990Z,10.00
2023-05-02T21:32:53.871Z,10.00
2023-05-02T21:35:20.825Z,9.90
2023-05-02T21:37:47.575Z,9.80
2023-05-02T21:40:14.391Z,9.80
2023-05-02T21:42:41.086Z,9.70
2023-05-02T21:45:08.447Z,9.60
2023-05-02T21:47:35.269Z,9.60
2023-05-02T21:50:02.438Z,9.60
2023-05-02T21:52:31.622Z,9.50
2023-05-02T21:54:58.542Z,9.40
2023-05-02T21:57:25.206Z,9.40
2023-05-02T21:59:52.019Z,9.40
2023-05-02T22:02:18.843Z,9.30
2023-05-02T22:04:48.176Z,9.30
2023-05-02T22:07:15.945Z,9.30
2023-05-02T22:09:42.836Z,9.20
2023-05-02T22:12:09.700Z,9.20
2023-05-02T22:14:44.221Z,9.20
2023-05-02T22:17:13.229Z,9.10
2023-05-02T22:19:40.630Z,9.10
2023-05-02T22:22:07.564Z,9.10
2023-05-02T22:24:34.399Z,9.10
2023-05-02T22:27:01.441Z,9.00
2023-05-02T22:29:28.330Z,9.00
2023-05-02T22:31:55.248Z,9.00
2023-05-02T22:34:22.948Z,8.90
2023-05-02T22:36:49.756Z,8.90
2023-05-02T22:39:16.702Z,8.90
2023-05-02T22:41:43.472Z,8.90
2023-05-02T22:44:11.114Z,8.80
2023-05-02T22:46:39.075Z,8.70
2023-05-02T22:49:10.253Z,8.60
2023-05-02T22:51:40.036Z,8.60
2023-05-02T22:54:08.155Z,8.50
2023-05-02T22:56:35.334Z,8.40
2023-05-02T22:59:02.082Z,8.40
2023-05-02T23:01:29.044Z,8.30
2023-05-02T23:03:56.109Z,8.30
2023-05-02T23:06:23.013Z,8.30
2023-05-02T23:08:50.006Z,8.30
2023-05-02T23:11:16.799Z,8.20
2023-05-02T23:13:43.528Z,8.10
2023-05-02T23:16:10.436Z,8.00
2023-05-02T23:18:37.154Z,8.00
2023-05-02T23:21:04.859Z,7.90
2023-05-02T23:23:31.702Z,7.90
2023-05-02T23:25:58.617Z,7.90
2023-05-02T23:28:26.234Z,7.90
2023-05-02T23:30:53.727Z,7.80
2023-05-02T23:33:20.659Z,7.80
2023-05-02T23:35:47.615Z,7.80
2023-05-02T23:38:14.605Z,7.80
2023-05-02T23:40:41.246Z,7.80
2023-05-02T23:43:08.841Z,7.80
2023-05-02T23:45:35.861Z,7.90
2023-05-02T23:48:03.151Z,7.90
2023-05-02T23:50:30.808Z,7.80
2023-05-02T23:52:57.613Z,7.80
2023-05-02T23:55:24.586Z,7.70
2023-05-02T23:57:51.316Z,7.70
